Tianjin, China
Current Conditions -  °F | °C
As of 11:30 PM on Saturday 20 Dec 2014 (Local Time) from ZBTJ Reporting Station
Clear Clear  
Wind Chill: 19°   Ceiling: Unl
Heat Index: 28°   Visibility: 6mi
Dew Point:   Wind: 11mph
Humidity: 29%   Direction: 320°NW
Pressure: 30.45"   Gusts: NA
Location:  39.13°N, 117.2°E
Report Text: ZBTJ 201530Z 32005MPS CAVOK M02/M18 Q1031 NOSIG
Loading
Personal Weather Stations






























Interactive Weather Map New forecast layout! Learn more

10-Day Weather Forecast

Advertisements
Track Severe Weather on mobile